EDT,Max TemperatureF,Mean TemperatureF,Min TemperatureF,Max Dew PointF,MeanDew PointF,Min DewpointF,Max Humidity, Mean Humidity, Min Humidity, Max Sea Level PressureIn, Mean Sea Level PressureIn, Min Sea Level PressureIn, Max VisibilityMiles, Mean VisibilityMiles, Min VisibilityMiles, Max Wind SpeedMPH, Mean Wind SpeedMPH, Max Gust SpeedMPH,PrecipitationIn, CloudCover, Events, WindDirDegrees
2013-4-1,84,72,59,63,58,52,88,64,37,30.05,30.00,29.93,10,10,8,16,4,24,0.00,1,,241
2013-4-2,80,70,60,63,54,43,100,64,26,30.13,30.08,30.02,10,8,4,14,2,21,0.00,0,,51
2013-4-3,82,68,55,66,61,54,100,80,45,30.13,30.07,30.01,10,8,1,14,2,16,0.00,2,,104
2013-4-4,75,70,66,70,66,63,100,85,69,30.05,29.97,29.89,10,8,4,23,3,38,0.00,4,,209
2013-4-5,73,64,55,66,61,54,100,88,73,30.04,29.90,29.83,10,8,1,15,2,21,0.00,6,,3
2013-4-6,73,63,53,57,55,50,94,75,53,30.18,30.10,30.02,10,9,7,16,3,23,0.00,2,,32
2013-4-7,78,66,55,61,56,54,100,71,42,30.21,30.15,30.09,10,8,5,14,3,23,0.00,1,,83
2013-4-8,82,68,55,63,59,54,94,74,44,30.18,30.14,30.10,10,9,6,15,2,22,0.00,1,,93
2013-4-9,82,72,62,66,60,52,100,71,37,30.22,30.16,30.11,10,9,7,18,3,22,0.00,1,,106
2013-4-10,82,71,60,70,64,57,94,78,54,30.17,30.09,30.03,10,9,6,14,1,20,0.00,2,,110
2013-4-11,87,78,69,72,69,64,100,78,46,30.04,29.95,29.86,10,7,5,15,4,20,0.00,3,,150
2013-4-12,84,78,73,72,70,66,94,77,58,29.93,29.88,29.84,10,9,7,22,9,29,0.00,2,,192
2013-4-13,82,73,62,70,61,52,94,69,37,30.03,29.96,29.90,10,8,5,13,1,,0.00,1,,56
2013-4-14,82,70,57,73,65,55,100,84,61,30.03,29.97,29.88,10,7,1,15,3,24,0.00,4,,94
2013-4-15,87,76,64,66,64,61,94,72,43,30.12,30.01,29.92,10,10,6,13,1,,0.00,1,,69
2013-4-16,82,74,66,72,66,64,100,80,54,30.19,30.15,30.10,10,6,0,14,3,23,0.00,4,,67
2013-4-17,82,74,66,70,65,63,100,80,51,30.19,30.14,30.10,10,6,0,15,3,20,0.00,4,,56
2013-4-18,87,76,64,72,65,57,100,76,35,30.11,30.05,29.99,10,8,1,13,1,17,0.00,1,,131
2013-4-19,89,81,73,73,70,66,94,77,46,30.05,30.00,29.92,10,8,4,24,5,38,0.00,3,,173
2013-4-20,75,66,57,70,59,54,94,88,68,30.20,30.09,29.99,10,9,3,13,2,18,0.00,6,,348
2013-4-21,78,68,59,70,65,55,94,87,65,30.19,30.13,30.07,10,8,1,12,1,17,0.00,7,,27
2013-4-22,75,70,64,70,65,61,100,92,69,30.12,30.08,30.04,9,5,0,17,3,23,0.00,7,,5
2013-4-23,77,68,60,63,60,57,100,77,53,30.16,30.12,30.05,10,8,4,15,3,22,0.00,0,,42
2013-4-24,84,70,55,63,59,52,94,71,37,30.19,30.14,30.10,10,8,7,13,1,17,0.00,0,,118
2013-4-25,87,73,59,64,60,55,100,68,33,30.23,30.18,30.14,10,8,6,12,1,,0.00,0,,71
2013-4-26,84,73,62,66,64,61,94,73,45,30.28,30.24,30.19,10,8,6,15,2,20,0.00,1,,51
2013-4-27,82,73,64,66,63,57,100,71,42,30.27,30.21,30.17,10,8,5,14,3,22,0.00,2,,60
2013-4-28,80,72,64,66,63,61,100,74,51,30.18,30.10,30.04,10,8,6,14,3,18,0.00,2,,111
2013-4-29,87,74,62,68,62,55,94,70,37,30.06,30.01,29.93,10,8,3,15,2,26,0.00,1,,187
2013-4-30,84,75,66,70,67,63,100,85,48,30.05,30.00,29.96,10,7,0,14,1,,0.00,2,,60